Time;durP1;ratioP1;P1;durP2;ratioP2;P2;SDS_P1;SDS_P2;PMS_P1;PMS_P2;Temp;Humidity;BMP_temperature;BMP_pressure;BME280_temperature;BME280_humidity;BME280_pressure;Samples;Min_cycle;Max_cycle;Signal;HPM_P1;HPM_P2
2022/04/15 00:01:22;;;;;;;7.45;4.20;;;14.20;99.90;;;;;;5096858;28;20035;-78
2022/04/15 00:03:49;;;;;;;15.52;5.20;;;14.20;99.90;;;;;;5097726;28;20488;-78
2022/04/15 00:06:16;;;;;;;9.68;3.88;;;14.20;99.90;;;;;;5097341;28;20051;-79
2022/04/15 00:08:42;;;;;;;10.20;3.83;;;14.30;99.90;;;;;;5096318;28;20032;-78
2022/04/15 00:11:08;;;;;;;10.00;3.80;;;14.20;99.90;;;;;;5097169;28;20024;-78
2022/04/15 00:13:35;;;;;;;11.38;4.45;;;14.30;99.90;;;;;;5098401;28;20031;-78
2022/04/15 00:16:05;;;;;;;7.13;3.55;;;14.20;99.90;;;;;;5097013;28;20020;-78
2022/04/15 00:18:32;;;;;;;9.70;4.30;;;14.20;99.90;;;;;;5096921;28;20059;-79
2022/04/15 00:20:59;;;;;;;15.07;4.18;;;14.20;99.90;;;;;;5096901;28;20081;-78
2022/04/15 00:23:25;;;;;;;10.25;3.65;;;14.20;99.90;;;;;;5098266;28;20484;-78
2022/04/15 00:25:52;;;;;;;7.55;4.10;;;14.20;99.90;;;;;;5097895;28;20031;-79
2022/04/15 00:28:19;;;;;;;7.60;3.65;;;14.20;99.90;;;;;;5098016;28;20028;-79
2022/04/15 00:30:45;;;;;;;12.57;4.57;;;14.10;99.90;;;;;;5097920;28;20046;-79
2022/04/15 00:33:11;;;;;;;7.03;3.80;;;14.20;99.90;;;;;;5098074;28;20020;-78
2022/04/15 00:35:38;;;;;;;10.57;4.40;;;14.10;99.90;;;;;;5097844;28;20030;-79
2022/04/15 00:38:04;;;;;;;9.55;4.25;;;14.10;99.90;;;;;;5096759;28;20030;-80
2022/04/15 00:40:30;;;;;;;9.75;4.35;;;14.10;99.90;;;;;;5096694;28;20384;-78
2022/04/15 00:42:56;;;;;;;13.07;4.85;;;14.00;99.90;;;;;;5097843;28;20027;-78
2022/04/15 00:45:22;;;;;;;12.70;4.05;;;14.00;99.90;;;;;;5096706;28;20046;-79
2022/04/15 00:47:58;;;;;;;12.05;4.63;;;13.90;99.90;;;;;;5096488;28;20445;-78
2022/04/15 00:50:32;;;;;;;11.13;4.57;;;13.90;99.90;;;;;;5097950;28;20023;-78
2022/04/15 00:53:01;;;;;;;9.38;3.33;;;13.90;99.90;;;;;;5097908;28;20016;-79
2022/04/15 00:55:27;;;;;;;11.20;4.38;;;13.80;99.90;;;;;;5097357;28;20381;-79
2022/04/15 00:57:58;;;;;;;10.45;3.83;;;13.80;99.90;;;;;;5097583;28;20028;-80
2022/04/15 01:00:28;;;;;;;12.05;3.72;;;13.70;99.90;;;;;;5097863;28;20020;-80
2022/04/15 01:02:57;;;;;;;10.60;4.60;;;13.80;99.90;;;;;;5096245;28;20036;-80
2022/04/15 01:05:24;;;;;;;8.82;3.90;;;13.70;99.90;;;;;;5096336;28;20024;-80
2022/04/15 01:07:52;;;;;;;7.35;3.88;;;13.70;99.90;;;;;;5096128;28;20442;-80
2022/04/15 01:10:19;;;;;;;9.48;5.57;;;13.60;99.90;;;;;;5097616;28;20024;-79
2022/04/15 01:12:48;;;;;;;9.55;3.60;;;13.60;99.90;;;;;;5097302;28;20059;-80
2022/04/15 01:15:14;;;;;;;5.53;3.50;;;13.60;99.90;;;;;;5095820;28;20020;-79
2022/04/15 01:17:41;;;;;;;14.55;4.25;;;13.60;99.90;;;;;;5097323;28;20020;-80
2022/04/15 01:20:10;;;;;;;7.10;4.38;;;13.60;99.90;;;;;;5096254;28;20107;-79
2022/04/15 01:22:38;;;;;;;11.82;4.05;;;13.60;99.90;;;;;;5097197;28;20146;-80
2022/04/15 01:25:09;;;;;;;10.02;4.13;;;13.60;99.90;;;;;;5097090;28;20052;-78
2022/04/15 01:27:40;;;;;;;11.52;4.13;;;13.60;99.90;;;;;;5096865;28;20024;-80
2022/04/15 01:30:20;;;;;;;10.52;4.30;;;13.50;99.90;;;;;;5083373;28;20488;-79
2022/04/15 01:32:47;;;;;;;9.13;4.13;;;13.50;99.90;;;;;;5097361;28;20016;-80
2022/04/15 01:35:15;;;;;;;13.90;4.63;;;13.50;99.90;;;;;;5096982;28;20089;-77
2022/04/15 01:37:42;;;;;;;8.23;3.92;;;13.50;99.90;;;;;;5097130;28;20059;-77
2022/04/15 01:40:09;;;;;;;7.25;4.47;;;13.40;99.90;;;;;;5096709;28;20100;-78
2022/04/15 01:42:36;;;;;;;7.70;4.85;;;13.40;99.90;;;;;;5095911;28;20028;-77
2022/04/15 01:45:03;;;;;;;8.10;4.03;;;13.40;99.90;;;;;;5096977;28;20016;-78
2022/04/15 01:47:29;;;;;;;7.53;4.45;;;13.30;99.90;;;;;;5095428;28;20048;-78
2022/04/15 01:49:55;;;;;;;7.80;3.70;;;13.30;99.90;;;;;;5095895;28;20031;-78
2022/04/15 01:52:21;;;;;;;10.00;4.68;;;13.30;99.90;;;;;;5097127;28;20377;-77
2022/04/15 01:54:47;;;;;;;11.32;4.63;;;13.30;99.90;;;;;;5096470;28;20088;-77
2022/04/15 01:57:14;;;;;;;12.07;4.80;;;13.40;99.90;;;;;;5096918;28;20039;-78
2022/04/15 01:59:40;;;;;;;7.72;3.83;;;13.40;99.90;;;;;;5095709;28;20113;-78
2022/04/15 02:02:06;;;;;;;12.73;4.68;;;13.40;99.90;;;;;;5095594;28;20036;-79
2022/04/15 02:04:32;;;;;;;8.98;4.22;;;13.40;99.90;;;;;;5096697;28;20021;-78
2022/04/15 02:06:58;;;;;;;11.63;4.10;;;13.30;99.90;;;;;;5097015;28;20058;-78
2022/04/15 02:09:24;;;;;;;8.55;4.00;;;13.30;99.90;;;;;;5096807;28;20028;-78
2022/04/15 02:11:50;;;;;;;6.95;4.03;;;13.30;99.90;;;;;;5096460;28;20081;-78
2022/04/15 02:14:18;;;;;;;6.97;4.45;;;13.20;99.90;;;;;;5095382;28;20050;-78
2022/04/15 02:16:45;;;;;;;9.48;5.05;;;13.20;99.90;;;;;;5096816;28;20549;-78
2022/04/15 02:19:11;;;;;;;7.55;4.18;;;13.10;99.90;;;;;;5096549;28;20099;-77
2022/04/15 02:21:37;;;;;;;10.10;4.18;;;13.10;99.90;;;;;;5096747;28;20048;-78
2022/04/15 02:24:03;;;;;;;9.15;4.20;;;13.00;99.90;;;;;;5097376;28;20019;-77
2022/04/15 02:26:29;;;;;;;10.82;4.35;;;12.90;99.90;;;;;;5099084;28;20028;-78
2022/04/15 02:28:55;;;;;;;9.93;4.20;;;12.90;99.90;;;;;;5101124;28;20038;-78
2022/04/15 02:31:21;;;;;;;8.75;4.47;;;12.90;99.90;;;;;;5100705;28;20024;-79
2022/04/15 02:33:47;;;;;;;8.40;4.70;;;12.80;99.90;;;;;;5101287;28;20081;-78
2022/04/15 02:36:13;;;;;;;10.48;4.85;;;12.70;99.90;;;;;;5101163;28;20032;-78
2022/04/15 02:38:39;;;;;;;12.85;5.28;;;12.60;99.90;;;;;;5099261;28;20046;-79
2022/04/15 02:41:06;;;;;;;13.32;5.35;;;12.60;99.90;;;;;;5099015;28;20107;-79
2022/04/15 02:43:33;;;;;;;9.25;5.40;;;12.50;99.90;;;;;;5098746;28;20498;-78
2022/04/15 02:46:04;;;;;;;11.32;4.88;;;12.50;99.90;;;;;;5100548;28;20400;-77
2022/04/15 02:48:30;;;;;;;8.80;4.63;;;12.40;99.90;;;;;;5100654;28;20059;-78
2022/04/15 02:50:57;;;;;;;6.97;4.28;;;12.40;99.90;;;;;;5099023;28;20508;-78
2022/04/15 02:53:24;;;;;;;13.82;5.28;;;12.50;99.90;;;;;;5098852;28;20056;-77
2022/04/15 02:55:50;;;;;;;10.98;5.68;;;12.40;99.90;;;;;;5099850;28;20082;-76
2022/04/15 02:58:16;;;;;;;11.00;5.47;;;12.40;99.90;;;;;;5098496;28;20020;-76
2022/04/15 03:00:42;;;;;;;8.32;4.82;;;12.40;99.90;;;;;;5100353;28;20016;-77
2022/04/15 03:03:08;;;;;;;13.93;4.45;;;12.30;99.90;;;;;;5098709;28;20081;-77
2022/04/15 03:05:34;;;;;;;7.38;5.10;;;12.30;99.90;;;;;;5098700;28;20028;-76
2022/04/15 03:08:00;;;;;;;12.00;5.30;;;12.30;99.90;;;;;;5098946;28;20028;-77
2022/04/15 03:10:25;;;;;;;9.68;5.05;;;12.30;99.90;;;;;;5098752;28;20476;-78
2022/04/15 03:12:51;;;;;;;16.13;6.07;;;12.30;99.90;;;;;;5099837;28;20028;-77
2022/04/15 03:15:17;;;;;;;11.13;6.25;;;12.20;99.90;;;;;;5098750;28;20016;-77
2022/04/15 03:17:44;;;;;;;14.27;5.72;;;12.10;99.90;;;;;;5100003;28;20058;-78
2022/04/15 03:20:11;;;;;;;10.50;6.13;;;12.00;99.90;;;;;;5098439;28;20713;-77
2022/04/15 03:22:38;;;;;;;10.05;5.38;;;12.00;99.90;;;;;;5098463;28;20035;-77
2022/04/15 03:25:06;;;;;;;7.78;5.47;;;12.00;99.90;;;;;;5098200;28;20035;-77
2022/04/15 03:27:33;;;;;;;16.60;6.07;;;11.90;99.90;;;;;;5099386;28;20093;-77
2022/04/15 03:29:59;;;;;;;9.27;6.20;;;11.90;99.90;;;;;;5099464;28;20027;-77
2022/04/15 03:32:25;;;;;;;7.00;5.50;;;11.90;99.90;;;;;;5099408;28;20381;-77
2022/04/15 03:34:58;;;;;;;12.88;6.28;;;11.90;99.90;;;;;;5097965;28;20079;-78
2022/04/15 03:37:24;;;;;;;15.27;6.00;;;11.90;99.90;;;;;;5086568;28;20032;-77
2022/04/15 03:39:51;;;;;;;11.10;5.78;;;11.90;99.90;;;;;;5097609;28;20024;-78
2022/04/15 03:42:18;;;;;;;13.95;6.47;;;11.80;99.90;;;;;;5097883;28;20028;-77
2022/04/15 03:44:43;;;;;;;12.65;5.82;;;11.80;99.90;;;;;;5097762;28;20473;-77
2022/04/15 03:47:09;;;;;;;9.45;5.95;;;11.80;99.90;;;;;;5097669;28;20120;-77
2022/04/15 03:49:35;;;;;;;10.50;6.22;;;11.80;99.90;;;;;;5097670;28;20032;-77
2022/04/15 03:52:01;;;;;;;10.73;5.95;;;11.70;99.90;;;;;;5098002;28;20020;-78
2022/04/15 03:54:27;;;;;;;10.13;5.82;;;11.70;99.90;;;;;;5098755;28;20028;-77
2022/04/15 03:56:53;;;;;;;14.93;6.93;;;11.70;99.90;;;;;;5097396;28;20035;-78
2022/04/15 03:59:19;;;;;;;10.80;6.18;;;11.70;99.90;;;;;;5098715;28;20106;-77
2022/04/15 04:01:45;;;;;;;16.20;6.70;;;11.70;99.90;;;;;;5096149;28;20020;-77
2022/04/15 04:04:11;;;;;;;10.98;6.10;;;11.70;99.90;;;;;;5082088;28;20115;-77
2022/04/15 04:06:39;;;;;;;15.27;7.07;;;11.70;99.90;;;;;;5080418;28;20024;-76
2022/04/15 04:09:05;;;;;;;17.55;7.10;;;11.70;99.90;;;;;;5079781;28;20016;-76
2022/04/15 04:11:31;;;;;;;11.00;6.82;;;11.60;99.90;;;;;;5095912;28;20039;-76
2022/04/15 04:13:57;;;;;;;11.82;6.55;;;11.60;99.90;;;;;;5097740;28;20063;-77
2022/04/15 04:16:22;;;;;;;11.70;6.72;;;11.50;99.90;;;;;;5097608;28;20019;-76
2022/04/15 04:18:48;;;;;;;19.30;7.50;;;11.50;99.90;;;;;;5097669;28;20034;-77
2022/04/15 04:21:14;;;;;;;17.90;7.47;;;11.50;99.90;;;;;;5084714;28;20017;-76
2022/04/15 04:23:40;;;;;;;11.05;6.65;;;11.50;99.90;;;;;;5078630;28;20465;-77
2022/04/15 04:26:06;;;;;;;11.80;7.20;;;11.50;99.90;;;;;;5078494;28;20385;-76
2022/04/15 04:28:33;;;;;;;16.85;7.55;;;11.50;99.90;;;;;;5077754;28;20033;-77
2022/04/15 04:30:59;;;;;;;13.25;7.68;;;11.50;99.90;;;;;;5095640;28;20119;-76
2022/04/15 04:33:25;;;;;;;14.13;7.63;;;11.50;99.90;;;;;;5097678;28;20020;-75
2022/04/15 04:35:51;;;;;;;15.18;7.70;;;11.50;99.90;;;;;;5089853;28;20096;-77
2022/04/15 04:38:17;;;;;;;14.18;8.20;;;11.50;99.90;;;;;;5080581;28;20052;-76
2022/04/15 04:40:45;;;;;;;16.52;7.30;;;11.50;99.90;;;;;;5077569;28;21488;-77
2022/04/15 04:43:11;;;;;;;11.75;7.32;;;11.50;99.90;;;;;;5085045;28;20027;-77
2022/04/15 04:45:38;;;;;;;17.40;7.78;;;11.40;99.90;;;;;;5096989;28;20119;-77
2022/04/15 04:48:05;;;;;;;10.90;7.93;;;11.40;99.90;;;;;;5079035;28;20021;-77
2022/04/15 04:50:31;;;;;;;21.00;7.95;;;11.30;99.90;;;;;;5083578;28;20020;-77
2022/04/15 04:52:58;;;;;;;16.23;8.57;;;11.30;99.90;;;;;;5097118;28;20016;-77
2022/04/15 04:55:25;;;;;;;12.52;7.85;;;11.20;99.90;;;;;;5094167;28;20019;-77
2022/04/15 04:57:51;;;;;;;10.48;7.05;;;11.00;99.90;;;;;;5095734;28;20027;-77
2022/04/15 05:00:18;;;;;;;16.42;8.70;;;10.90;99.90;;;;;;5097198;28;20016;-78
2022/04/15 05:02:45;;;;;;;18.55;8.45;;;10.80;99.90;;;;;;5096926;28;20012;-78
2022/04/15 05:05:14;;;;;;;16.67;7.90;;;10.80;99.90;;;;;;5096088;28;20027;-78
2022/04/15 05:07:41;;;;;;;16.63;8.47;;;10.70;99.90;;;;;;5097447;28;20017;-78
2022/04/15 05:10:09;;;;;;;19.55;9.68;;;10.70;99.90;;;;;;5082216;28;20059;-75
2022/04/15 05:12:35;;;;;;;14.38;8.73;;;10.70;99.90;;;;;;5079054;28;20020;-75
2022/04/15 05:15:01;;;;;;;16.27;8.30;;;10.70;99.90;;;;;;5087221;28;20044;-77
2022/04/15 05:17:27;;;;;;;18.52;9.48;;;10.70;99.90;;;;;;5080235;28;20027;-78
2022/04/15 05:19:53;;;;;;;17.60;9.57;;;10.70;99.90;;;;;;5084503;28;20044;-77
2022/04/15 05:22:21;;;;;;;15.45;9.07;;;10.70;99.90;;;;;;5078756;28;20024;-76
2022/04/15 05:24:47;;;;;;;14.13;9.05;;;10.70;99.90;;;;;;5087214;28;20451;-75
2022/04/15 05:27:13;;;;;;;12.98;9.02;;;10.80;99.90;;;;;;5097009;28;20031;-77
2022/04/15 05:29:39;;;;;;;19.27;9.02;;;10.90;99.90;;;;;;5095738;28;20043;-77
2022/04/15 05:32:05;;;;;;;18.00;8.75;;;11.00;99.90;;;;;;5095682;28;20039;-79
2022/04/15 05:34:31;;;;;;;14.38;8.80;;;11.10;99.90;;;;;;5096960;28;20025;-78
2022/04/15 05:36:57;;;;;;;22.65;9.10;;;11.10;99.90;;;;;;5094652;28;20031;-79
2022/04/15 05:39:23;;;;;;;16.77;9.27;;;11.10;99.90;;;;;;5095911;28;20107;-79
2022/04/15 05:41:48;;;;;;;28.98;12.18;;;11.00;99.90;;;;;;5096712;28;20035;-79
2022/04/15 05:44:16;;;;;;;20.25;9.80;;;11.00;99.90;;;;;;5095833;28;20087;-79
2022/04/15 05:46:45;;;;;;;19.55;11.30;;;11.00;99.90;;;;;;5072937;28;20066;-79
2022/04/15 05:49:15;;;;;;;15.68;9.48;;;11.00;99.90;;;;;;5083846;28;20032;-78
2022/04/15 05:51:47;;;;;;;23.45;10.57;;;11.00;99.90;;;;;;5095240;28;20107;-78
2022/04/15 05:54:13;;;;;;;17.40;9.38;;;11.00;99.90;;;;;;5096677;28;20024;-79
2022/04/15 05:56:39;;;;;;;13.85;9.65;;;11.10;99.90;;;;;;5095004;28;20082;-79
2022/04/15 05:59:05;;;;;;;18.27;8.88;;;11.10;99.90;;;;;;5099342;28;20020;-78
2022/04/15 06:01:32;;;;;;;19.77;10.82;;;11.20;99.90;;;;;;5100753;28;20028;-79
2022/04/15 06:03:57;;;;;;;15.15;9.35;;;11.30;99.90;;;;;;5099622;28;20027;-77
2022/04/15 06:06:23;;;;;;;16.17;8.98;;;11.40;99.90;;;;;;5099359;28;20024;-78
2022/04/15 06:08:49;;;;;;;14.88;8.77;;;11.40;99.90;;;;;;5094232;28;20016;-78
2022/04/15 06:11:15;;;;;;;23.90;9.70;;;11.50;99.90;;;;;;5095915;28;20031;-77
2022/04/15 06:13:46;;;;;;;17.85;9.80;;;11.50;99.90;;;;;;5100149;28;20031;-78
2022/04/15 06:16:16;;;;;;;16.83;9.15;;;11.60;99.90;;;;;;5100271;28;20027;-78
2022/04/15 06:18:43;;;;;;;18.50;8.97;;;11.60;99.90;;;;;;5100062;28;20086;-77
2022/04/15 06:21:09;;;;;;;13.57;8.27;;;11.60;99.90;;;;;;5094503;28;20316;-78
2022/04/15 06:23:34;;;;;;;18.73;9.68;;;11.60;99.90;;;;;;5098763;28;20020;-78
2022/04/15 06:26:00;;;;;;;16.98;9.13;;;11.60;99.90;;;;;;5100468;28;20392;-79
2022/04/15 06:28:26;;;;;;;17.55;9.55;;;11.70;99.90;;;;;;5088299;28;20035;-78
2022/04/15 06:30:54;;;;;;;16.13;10.02;;;11.70;99.90;;;;;;5087193;28;20077;-78
2022/04/15 06:33:22;;;;;;;25.92;9.82;;;11.80;99.90;;;;;;5100582;28;20027;-78
2022/04/15 06:35:51;;;;;;;18.92;9.90;;;11.80;99.90;;;;;;5091917;28;20024;-78
2022/04/15 06:38:18;;;;;;;13.20;8.63;;;11.90;99.90;;;;;;5094583;28;20077;-78
2022/04/15 06:40:43;;;;;;;19.42;9.10;;;12.00;99.90;;;;;;5099992;28;20103;-76
2022/04/15 06:43:09;;;;;;;16.80;9.63;;;12.00;99.90;;;;;;5100153;28;20047;-78
2022/04/15 06:45:35;;;;;;;15.88;8.95;;;12.10;99.90;;;;;;5100294;28;20442;-77
2022/04/15 06:48:01;;;;;;;16.40;9.00;;;12.20;99.90;;;;;;5098941;28;20107;-78
2022/04/15 06:50:28;;;;;;;17.98;9.57;;;12.30;99.90;;;;;;5099960;28;20023;-77
2022/04/15 06:52:53;;;;;;;16.63;9.30;;;12.20;99.90;;;;;;5099110;28;20023;-77
2022/04/15 06:55:19;;;;;;;14.18;9.23;;;12.30;99.90;;;;;;5098760;28;20484;-77
2022/04/15 06:57:45;;;;;;;14.18;8.55;;;12.30;99.90;;;;;;5098577;28;20476;-78
2022/04/15 07:00:13;;;;;;;19.10;9.70;;;12.30;99.90;;;;;;5099972;28;20020;-78
2022/04/15 07:02:41;;;;;;;18.73;10.32;;;12.20;99.90;;;;;;5098437;28;20031;-78
2022/04/15 07:05:09;;;;;;;14.45;8.13;;;12.20;99.90;;;;;;5098492;28;20027;-79
2022/04/15 07:07:39;;;;;;;12.35;9.35;;;12.20;99.90;;;;;;5098094;28;20058;-79
2022/04/15 07:10:07;;;;;;;18.45;9.77;;;12.20;99.90;;;;;;5099032;28;20020;-78
2022/04/15 07:12:33;;;;;;;16.33;9.77;;;12.30;99.90;;;;;;5098240;28;20016;-78
2022/04/15 07:14:59;;;;;;;14.07;8.93;;;12.40;99.90;;;;;;5099627;28;20077;-79
2022/04/15 07:17:25;;;;;;;14.05;8.20;;;12.50;99.90;;;;;;5091987;28;20028;-77
2022/04/15 07:19:51;;;;;;;18.40;8.90;;;12.60;99.90;;;;;;5099554;28;20085;-78
2022/04/15 07:22:20;;;;;;;16.48;9.18;;;12.70;99.90;;;;;;5099258;28;20016;-76
2022/04/15 07:24:47;;;;;;;14.68;8.63;;;12.80;99.90;;;;;;5088679;28;20527;-77
2022/04/15 07:27:13;;;;;;;15.68;8.45;;;12.90;99.90;;;;;;5096255;28;20484;-77
2022/04/15 07:29:39;;;;;;;16.40;9.07;;;13.00;99.90;;;;;;5081259;28;20103;-78
2022/04/15 07:32:05;;;;;;;17.02;9.60;;;13.00;99.90;;;;;;5098353;28;20039;-78
2022/04/15 07:34:31;;;;;;;12.90;9.38;;;13.10;99.90;;;;;;5098778;28;20402;-76
2022/04/15 07:36:59;;;;;;;19.98;9.98;;;13.20;99.90;;;;;;5096117;28;20484;-79
2022/04/15 07:39:25;;;;;;;13.70;8.73;;;13.30;99.90;;;;;;5097523;28;20035;-76
2022/04/15 07:41:51;;;;;;;14.43;8.93;;;13.40;99.90;;;;;;5094947;28;20062;-78
2022/04/15 07:44:18;;;;;;;22.70;9.18;;;13.40;99.90;;;;;;5099304;28;20376;-76
2022/04/15 07:46:45;;;;;;;16.83;8.85;;;13.50;99.90;;;;;;5098838;28;20047;-77
2022/04/15 07:49:11;;;;;;;16.58;9.40;;;13.50;99.90;;;;;;5098015;28;20027;-77
2022/04/15 07:51:37;;;;;;;13.55;8.82;;;13.60;99.90;;;;;;5096862;28;20024;-77
2022/04/15 07:54:05;;;;;;;12.82;7.80;;;13.70;99.90;;;;;;5098479;28;20051;-77
2022/04/15 07:56:32;;;;;;;11.18;7.43;;;13.80;99.90;;;;;;5098455;28;20480;-78
2022/04/15 07:58:58;;;;;;;13.73;7.95;;;13.80;99.90;;;;;;5097128;28;20036;-76
2022/04/15 08:01:27;;;;;;;11.90;7.72;;;14.00;99.90;;;;;;5097261;28;20038;-76
2022/04/15 08:03:54;;;;;;;14.68;8.05;;;14.10;99.90;;;;;;5097505;28;20478;-77
2022/04/15 08:06:22;;;;;;;13.40;7.82;;;14.30;99.90;;;;;;5097307;28;20012;-78
2022/04/15 08:08:55;;;;;;;13.13;8.35;;;14.40;99.90;;;;;;5098624;28;20039;-77
2022/04/15 08:11:21;;;;;;;15.60;7.72;;;14.40;99.90;;;;;;5098558;28;20384;-77
2022/04/15 08:13:48;;;;;;;11.52;7.97;;;14.40;99.90;;;;;;5097912;28;20366;-78
2022/04/15 08:16:14;;;;;;;15.25;7.47;;;14.40;99.90;;;;;;5097058;28;20031;-77
2022/04/15 08:18:40;;;;;;;18.95;7.32;;;14.50;99.90;;;;;;5092377;28;20060;-76
2022/04/15 08:21:06;;;;;;;15.80;8.48;;;14.50;99.90;;;;;;5096946;28;20016;-76
2022/04/15 08:23:32;;;;;;;11.02;7.97;;;14.50;99.90;;;;;;5096521;28;20027;-77
2022/04/15 08:25:58;;;;;;;16.45;8.98;;;14.50;99.90;;;;;;5097005;28;20016;-78
2022/04/15 08:28:24;;;;;;;17.17;8.75;;;14.50;99.90;;;;;;5098318;28;20450;-77
2022/04/15 08:30:50;;;;;;;17.88;7.90;;;14.50;99.90;;;;;;5096662;28;20020;-78
2022/04/15 08:33:16;;;;;;;25.70;8.63;;;14.50;99.90;;;;;;5098042;28;20024;-80
2022/04/15 08:35:42;;;;;;;15.00;8.90;;;14.60;99.90;;;;;;5097175;28;20106;-77
2022/04/15 08:38:08;;;;;;;19.02;8.30;;;14.60;99.90;;;;;;5097938;28;20103;-77
2022/04/15 08:40:37;;;;;;;12.20;7.90;;;14.70;99.90;;;;;;5097300;28;20048;-77
2022/04/15 08:43:06;;;;;;;13.85;8.35;;;14.70;99.90;;;;;;5098079;28;20024;-77
2022/04/15 08:45:37;;;;;;;17.88;9.23;;;14.80;99.90;;;;;;5097790;28;20036;-78
2022/04/15 08:48:05;;;;;;;19.25;8.10;;;14.90;99.90;;;;;;5096809;28;20032;-77
2022/04/15 08:50:31;;;;;;;11.05;7.97;;;15.10;99.90;;;;;;5098087;28;20392;-77
2022/04/15 08:52:59;;;;;;;11.48;7.20;;;15.20;99.90;;;;;;5096835;28;20024;-77
2022/04/15 08:55:27;;;;;;;13.40;7.35;;;15.20;99.90;;;;;;5096711;28;20016;-79
2022/04/15 08:57:54;;;;;;;20.45;7.05;;;15.30;99.90;;;;;;5098067;28;20028;-78
2022/04/15 09:00:21;;;;;;;14.13;8.32;;;15.40;99.90;;;;;;5098341;28;20016;-79
2022/04/15 09:02:49;;;;;;;14.63;7.47;;;15.40;99.90;;;;;;5098004;28;20020;-78
2022/04/15 09:05:28;;;;;;;12.02;7.38;;;15.50;99.90;;;;;;5098253;28;20126;-80
2022/04/15 09:08:10;;;;;;;15.55;7.68;;;15.60;99.90;;;;;;5098214;28;20028;-81
2022/04/15 09:10:39;;;;;;;15.25;8.77;;;15.70;99.90;;;;;;5097377;28;20012;-81
2022/04/15 09:13:05;;;;;;;14.43;7.72;;;15.80;99.90;;;;;;5099031;28;20032;-80
2022/04/15 09:15:31;;;;;;;13.63;7.60;;;15.80;99.90;;;;;;5098010;28;20023;-81
2022/04/15 09:18:00;;;;;;;28.52;12.45;;;15.80;99.90;;;;;;5097841;28;20016;-81
2022/04/15 09:20:33;;;;;;;21.33;8.55;;;15.90;99.90;;;;;;5096992;28;20073;-82
2022/04/15 09:23:08;;;;;;;19.40;8.93;;;15.90;99.90;;;;;;5097090;28;20020;-81
2022/04/15 09:25:35;;;;;;;17.85;7.82;;;15.90;99.90;;;;;;5098140;28;20070;-81
2022/04/15 09:28:02;;;;;;;13.73;7.68;;;15.80;99.90;;;;;;5096902;28;20024;-82
2022/04/15 09:30:36;;;;;;;16.13;7.47;;;15.80;99.90;;;;;;5099169;28;20064;-79
2022/04/15 09:33:03;;;;;;;16.70;8.48;;;15.80;99.90;;;;;;5098028;28;20028;-82
2022/04/15 09:35:30;;;;;;;24.63;9.40;;;15.90;99.90;;;;;;5099902;28;20476;-82
2022/04/15 09:38:02;;;;;;;16.90;9.38;;;15.90;99.90;;;;;;5100072;28;20119;-81
2022/04/15 09:40:31;;;;;;;22.50;10.77;;;16.00;99.90;;;;;;5098597;28;20035;-82
2022/04/15 09:42:58;;;;;;;16.20;9.45;;;16.20;99.90;;;;;;5078318;28;20534;-84
2022/04/15 09:45:36;;;;;;;19.17;10.57;;;16.30;99.90;;;;;;5082958;28;20024;-82
2022/04/15 09:48:09;;;;;;;14.88;9.52;;;16.20;99.90;;;;;;5098313;28;20022;-81
2022/04/15 09:50:37;;;;;;;32.33;12.40;;;16.10;99.90;;;;;;5097527;28;20047;-85
2022/04/15 09:53:10;;;;;;;17.95;10.07;;;16.20;99.90;;;;;;5095100;28;20077;-83
2022/04/15 09:55:41;;;;;;;24.42;12.77;;;16.30;99.90;;;;;;5096888;28;20035;-80
2022/04/15 09:58:18;;;;;;;16.75;11.48;;;16.40;99.90;;;;;;5092675;28;20380;-79
2022/04/15 10:00:51;;;;;;;32.28;12.75;;;16.30;99.90;;;;;;5096413;28;20024;-79
2022/04/15 10:03:22;;;;;;;18.52;11.27;;;16.50;99.90;;;;;;5095416;28;20016;-79
2022/04/15 10:05:56;;;;;;;49.38;12.02;;;16.60;99.90;;;;;;5095240;28;20023;-79
2022/04/15 10:08:25;;;;;;;34.92;13.27;;;16.70;99.90;;;;;;5094056;28;20024;-81
2022/04/15 10:10:52;;;;;;;27.95;13.65;;;16.70;99.90;;;;;;5096395;28;20062;-81
2022/04/15 10:13:20;;;;;;;21.35;13.05;;;17.00;99.90;;;;;;5097350;28;20020;-77
2022/04/15 10:15:49;;;;;;;15.18;12.52;;;16.90;99.90;;;;;;5095783;28;20396;-78
2022/04/15 10:18:15;;;;;;;18.95;10.35;;;16.70;99.90;;;;;;5097291;28;20111;-79
2022/04/15 10:20:42;;;;;;;18.85;11.93;;;16.60;99.90;;;;;;5095577;28;20031;-78
2022/04/15 10:23:13;;;;;;;15.80;8.38;;;16.70;99.90;;;;;;5095649;28;20028;-77
2022/04/15 10:25:42;;;;;;;19.60;11.32;;;16.70;99.90;;;;;;5095700;28;20046;-78
2022/04/15 10:28:13;;;;;;;16.88;11.85;;;16.70;99.90;;;;;;5096852;28;20057;-78
2022/04/15 10:30:46;;;;;;;18.85;10.85;;;16.80;99.90;;;;;;5082971;28;20021;-79
2022/04/15 10:33:30;;;;;;;16.05;11.20;;;16.90;99.90;;;;;;5096859;28;20062;-78
2022/04/15 10:36:33;;;;;;;23.88;11.38;;;17.10;99.90;;;;;;5096866;28;20020;-77
2022/04/15 10:39:09;;;;;;;22.83;10.57;;;17.20;99.90;;;;;;5083547;28;20036;-77
2022/04/15 10:41:41;;;;;;;24.23;14.05;;;17.20;99.90;;;;;;5096249;28;20056;-77
2022/04/15 10:44:10;;;;;;;20.70;10.05;;;17.30;99.90;;;;;;5095471;28;20077;-79
2022/04/15 10:46:36;;;;;;;13.45;10.43;;;17.20;99.90;;;;;;5099704;28;20087;-78
2022/04/15 10:49:23;;;;;;;14.50;9.60;;;17.20;99.90;;;;;;5100504;28;20062;-78
2022/04/15 10:52:15;;;;;;;16.48;11.27;;;17.40;99.90;;;;;;5100329;28;20032;-77
2022/04/15 10:54:50;;;;;;;12.57;9.55;;;17.50;99.90;;;;;;5100106;28;20019;-78
2022/04/15 10:57:21;;;;;;;15.32;10.25;;;17.40;99.90;;;;;;5100294;28;20052;-77
2022/04/15 11:02:46;;;;;;;14.02;9.68;;;17.40;99.90;;;;;;5099689;28;20135;-77
2022/04/15 11:05:15;;;;;;;16.23;9.52;;;17.40;99.90;;;;;;5092896;28;20385;-77
2022/04/15 11:07:49;;;;;;;15.27;9.27;;;17.40;99.90;;;;;;5094752;28;20237;-77
2022/04/15 11:10:37;;;;;;;15.45;8.90;;;17.40;99.90;;;;;;5094363;28;20157;-77
2022/04/15 11:13:03;;;;;;;11.38;8.50;;;17.40;99.90;;;;;;5084078;28;20472;-77
2022/04/15 11:15:59;;;;;;;12.07;8.05;;;17.20;99.90;;;;;;5099934;28;20027;-77
2022/04/15 11:18:56;;;;;;;11.32;8.07;;;17.30;99.90;;;;;;5098576;28;20509;-77
2022/04/15 11:21:22;;;;;;;13.02;8.43;;;17.30;99.90;;;;;;5098611;28;20066;-79
2022/04/15 11:23:53;;;;;;;12.23;7.82;;;17.40;99.90;;;;;;5096367;28;20029;-78
2022/04/15 11:26:21;;;;;;;10.23;7.82;;;17.30;99.90;;;;;;5079656;28;20009;-77
2022/04/15 11:28:50;;;;;;;12.45;7.60;;;17.30;99.90;;;;;;5080866;28;20013;-78
2022/04/15 11:31:32;;;;;;;10.25;7.10;;;17.50;99.90;;;;;;5096751;28;20022;-77
2022/04/15 11:34:13;;;;;;;14.65;6.78;;;17.70;99.90;;;;;;5079291;28;20115;-77
2022/04/15 11:36:40;;;;;;;10.85;7.93;;;17.90;99.90;;;;;;5095024;28;20561;-79
2022/04/15 11:39:09;;;;;;;9.88;7.30;;;17.80;99.90;;;;;;5099156;28;20024;-78
2022/04/15 11:41:35;;;;;;;13.80;6.63;;;17.60;99.90;;;;;;5098324;28;20024;-77
2022/04/15 11:44:04;;;;;;;8.25;6.53;;;17.50;99.90;;;;;;5098217;28;20433;-77
2022/04/15 11:46:36;;;;;;;8.63;6.88;;;17.50;99.90;;;;;;5095417;28;20047;-78
2022/04/15 11:49:04;;;;;;;11.02;7.20;;;17.60;99.90;;;;;;5098118;28;20024;-78
2022/04/15 11:51:30;;;;;;;12.43;7.28;;;17.80;99.90;;;;;;5099250;28;20040;-80
2022/04/15 11:53:59;;;;;;;11.45;7.30;;;17.80;99.90;;;;;;5099178;28;20403;-82
2022/04/15 11:56:29;;;;;;;9.23;6.40;;;17.80;99.90;;;;;;5098709;28;20037;-79
2022/04/15 11:58:58;;;;;;;12.98;6.90;;;17.80;99.90;;;;;;5099113;28;20024;-78
2022/04/15 12:01:31;;;;;;;10.90;6.22;;;18.10;99.90;;;;;;5099335;28;20024;-78
2022/04/15 12:03:58;;;;;;;9.05;6.65;;;18.10;99.90;;;;;;5096634;28;20024;-78
2022/04/15 12:06:25;;;;;;;9.05;6.93;;;18.10;99.90;;;;;;5097509;28;20400;-78
2022/04/15 12:08:52;;;;;;;14.23;8.20;;;18.10;99.90;;;;;;5098859;28;20028;-79
2022/04/15 12:11:25;;;;;;;14.80;6.07;;;18.20;99.90;;;;;;5098313;28;20078;-80
2022/04/15 12:13:59;;;;;;;12.38;7.40;;;18.20;99.90;;;;;;5097997;28;20024;-78
2022/04/15 12:16:27;;;;;;;11.50;6.40;;;18.30;99.90;;;;;;5099157;28;20031;-78
2022/04/15 12:18:54;;;;;;;10.38;5.88;;;18.20;99.90;;;;;;5097517;28;20028;-79
2022/04/15 12:21:20;;;;;;;14.75;7.65;;;18.30;99.90;;;;;;5091762;28;20419;-79
2022/04/15 12:24:03;;;;;;;12.68;7.40;;;18.50;99.90;;;;;;5097021;28;20515;-79
2022/04/15 12:26:43;;;;;;;11.48;6.13;;;18.50;99.90;;;;;;5098731;28;20016;-79
2022/04/15 12:32:12;;;;;;;15.90;6.22;;;18.50;99.90;;;;;;5098712;28;20130;-80
2022/04/15 12:34:38;;;;;;;11.98;6.05;;;18.80;99.90;;;;;;5098491;28;20051;-79
2022/04/15 12:37:04;;;;;;;9.35;5.57;;;19.20;99.90;;;;;;5097120;28;20031;-79
2022/04/15 12:39:30;;;;;;;8.15;5.85;;;19.40;99.90;;;;;;5098450;28;20107;-76
2022/04/15 12:41:56;;;;;;;8.43;6.03;;;19.80;99.90;;;;;;5097032;28;20392;-76
2022/04/15 12:44:32;;;;;;;9.55;6.07;;;20.00;99.90;;;;;;5098525;28;20027;-77
2022/04/15 12:47:00;;;;;;;11.45;6.57;;;20.10;99.90;;;;;;5097668;28;20420;-76
2022/04/15 12:49:34;;;;;;;12.82;6.07;;;20.20;99.90;;;;;;5097017;28;20019;-76